sensor_id;sensor_type;location;lat;lon;timestamp;P1;durP1;ratioP1;P2;durP2;ratioP2
56736;SDS011;42618;51.226;4.910;2024-01-15T00:00:15;22.63;;;7.78;;
56736;SDS011;42618;51.226;4.910;2024-01-15T00:02:43;14.77;;;6.10;;
56736;SDS011;42618;51.226;4.910;2024-01-15T00:05:09;16.08;;;6.60;;
56736;SDS011;42618;51.226;4.910;2024-01-15T00:07:36;24.48;;;9.30;;
56736;SDS011;42618;51.226;4.910;2024-01-15T00:10:03;22.80;;;9.00;;
56736;SDS011;42618;51.226;4.910;2024-01-15T00:12:30;18.85;;;7.53;;
56736;SDS011;42618;51.226;4.910;2024-01-15T00:14:58;22.73;;;8.90;;
56736;SDS011;42618;51.226;4.910;2024-01-15T00:17:24;21.90;;;7.72;;
56736;SDS011;42618;51.226;4.910;2024-01-15T00:19:51;20.35;;;8.00;;
56736;SDS011;42618;51.226;4.910;2024-01-15T00:22:19;16.10;;;6.20;;
56736;SDS011;42618;51.226;4.910;2024-01-15T00:24:46;19.08;;;7.20;;
56736;SDS011;42618;51.226;4.910;2024-01-15T00:27:13;26.17;;;8.43;;
56736;SDS011;42618;51.226;4.910;2024-01-15T00:29:39;5.93;;;3.20;;
56736;SDS011;42618;51.226;4.910;2024-01-15T00:32:06;17.58;;;7.43;;
56736;SDS011;42618;51.226;4.910;2024-01-15T00:34:33;23.25;;;8.35;;
56736;SDS011;42618;51.226;4.910;2024-01-15T00:37:00;19.63;;;7.80;;
56736;SDS011;42618;51.226;4.910;2024-01-15T00:39:27;11.93;;;6.05;;
56736;SDS011;42618;51.226;4.910;2024-01-15T00:41:54;17.88;;;6.75;;
56736;SDS011;42618;51.226;4.910;2024-01-15T00:44:20;7.70;;;4.35;;
56736;SDS011;42618;51.226;4.910;2024-01-15T00:46:47;18.20;;;7.30;;
56736;SDS011;42618;51.226;4.910;2024-01-15T00:49:14;12.60;;;5.22;;
56736;SDS011;42618;51.226;4.910;2024-01-15T00:51:42;10.48;;;4.82;;
56736;SDS011;42618;51.226;4.910;2024-01-15T00:54:08;7.17;;;4.33;;
56736;SDS011;42618;51.226;4.910;2024-01-15T00:56:36;16.75;;;7.60;;
56736;SDS011;42618;51.226;4.910;2024-01-15T00:59:03;19.23;;;7.45;;
56736;SDS011;42618;51.226;4.910;2024-01-15T01:01:29;17.90;;;6.70;;
56736;SDS011;42618;51.226;4.910;2024-01-15T01:03:56;21.67;;;9.47;;
56736;SDS011;42618;51.226;4.910;2024-01-15T01:06:24;17.70;;;8.07;;
56736;SDS011;42618;51.226;4.910;2024-01-15T01:08:51;21.83;;;8.77;;
56736;SDS011;42618;51.226;4.910;2024-01-15T01:11:18;23.98;;;9.00;;
56736;SDS011;42618;51.226;4.910;2024-01-15T01:13:45;21.65;;;9.57;;
56736;SDS011;42618;51.226;4.910;2024-01-15T01:16:12;21.27;;;9.75;;
56736;SDS011;42618;51.226;4.910;2024-01-15T01:18:38;18.98;;;8.55;;
56736;SDS011;42618;51.226;4.910;2024-01-15T01:21:05;18.27;;;8.20;;
56736;SDS011;42618;51.226;4.910;2024-01-15T01:23:32;21.87;;;9.23;;
56736;SDS011;42618;51.226;4.910;2024-01-15T01:25:59;22.58;;;9.07;;
56736;SDS011;42618;51.226;4.910;2024-01-15T01:28:26;20.13;;;7.85;;
56736;SDS011;42618;51.226;4.910;2024-01-15T01:30:54;19.65;;;8.07;;
56736;SDS011;42618;51.226;4.910;2024-01-15T01:33:21;17.40;;;8.67;;
56736;SDS011;42618;51.226;4.910;2024-01-15T01:35:48;19.88;;;8.15;;
56736;SDS011;42618;51.226;4.910;2024-01-15T01:38:15;20.57;;;8.70;;
56736;SDS011;42618;51.226;4.910;2024-01-15T01:40:42;18.35;;;6.78;;
56736;SDS011;42618;51.226;4.910;2024-01-15T01:43:09;15.95;;;5.78;;
56736;SDS011;42618;51.226;4.910;2024-01-15T01:48:05;17.88;;;7.25;;
56736;SDS011;42618;51.226;4.910;2024-01-15T01:50:32;10.57;;;4.65;;
56736;SDS011;42618;51.226;4.910;2024-01-15T01:53:00;14.63;;;6.45;;
56736;SDS011;42618;51.226;4.910;2024-01-15T01:55:30;11.48;;;5.10;;
56736;SDS011;42618;51.226;4.910;2024-01-15T01:57:59;15.52;;;5.75;;
56736;SDS011;42618;51.226;4.910;2024-01-15T02:00:27;11.90;;;5.00;;
56736;SDS011;42618;51.226;4.910;2024-01-15T02:02:54;13.63;;;4.68;;
56736;SDS011;42618;51.226;4.910;2024-01-15T02:05:22;9.45;;;4.57;;
56736;SDS011;42618;51.226;4.910;2024-01-15T02:07:49;13.60;;;4.07;;
56736;SDS011;42618;51.226;4.910;2024-01-15T02:10:15;6.05;;;2.95;;
56736;SDS011;42618;51.226;4.910;2024-01-15T02:12:43;8.43;;;3.33;;
56736;SDS011;42618;51.226;4.910;2024-01-15T02:15:10;5.97;;;2.53;;
56736;SDS011;42618;51.226;4.910;2024-01-15T02:20:37;6.85;;;0.98;;
56736;SDS011;42618;51.226;4.910;2024-01-15T02:23:10;8.03;;;0.93;;
56736;SDS011;42618;51.226;4.910;2024-01-15T02:25:40;3.15;;;0.80;;
56736;SDS011;42618;51.226;4.910;2024-01-15T02:28:09;1.02;;;0.50;;
56736;SDS011;42618;51.226;4.910;2024-01-15T02:30:37;3.08;;;0.50;;
56736;SDS011;42618;51.226;4.910;2024-01-15T02:33:08;1.95;;;0.13;;
56736;SDS011;42618;51.226;4.910;2024-01-15T02:35:36;3.55;;;0.32;;
56736;SDS011;42618;51.226;4.910;2024-01-15T02:38:04;6.13;;;0.63;;
56736;SDS011;42618;51.226;4.910;2024-01-15T02:40:31;0.10;;;0.00;;
56736;SDS011;42618;51.226;4.910;2024-01-15T02:42:58;0.38;;;0.20;;
56736;SDS011;42618;51.226;4.910;2024-01-15T02:45:25;3.50;;;0.73;;
56736;SDS011;42618;51.226;4.910;2024-01-15T02:47:52;4.13;;;0.75;;
56736;SDS011;42618;51.226;4.910;2024-01-15T02:50:19;1.92;;;0.90;;
56736;SDS011;42618;51.226;4.910;2024-01-15T02:52:46;1.20;;;0.80;;
56736;SDS011;42618;51.226;4.910;2024-01-15T02:55:12;3.35;;;1.95;;
56736;SDS011;42618;51.226;4.910;2024-01-15T02:57:39;6.35;;;2.20;;
56736;SDS011;42618;51.226;4.910;2024-01-15T03:00:06;4.75;;;2.78;;
56736;SDS011;42618;51.226;4.910;2024-01-15T03:02:36;6.43;;;3.50;;
56736;SDS011;42618;51.226;4.910;2024-01-15T03:05:09;10.10;;;4.53;;
56736;SDS011;42618;51.226;4.910;2024-01-15T03:07:36;6.00;;;3.40;;
56736;SDS011;42618;51.226;4.910;2024-01-15T03:10:03;14.25;;;2.97;;
56736;SDS011;42618;51.226;4.910;2024-01-15T03:12:31;12.43;;;4.43;;
56736;SDS011;42618;51.226;4.910;2024-01-15T03:14:58;9.57;;;4.35;;
56736;SDS011;42618;51.226;4.910;2024-01-15T03:17:25;7.00;;;4.22;;
56736;SDS011;42618;51.226;4.910;2024-01-15T03:19:51;12.45;;;5.22;;
56736;SDS011;42618;51.226;4.910;2024-01-15T03:22:18;6.85;;;4.10;;
56736;SDS011;42618;51.226;4.910;2024-01-15T03:24:45;12.27;;;5.63;;
56736;SDS011;42618;51.226;4.910;2024-01-15T03:27:12;14.60;;;6.90;;
56736;SDS011;42618;51.226;4.910;2024-01-15T03:29:39;17.42;;;7.53;;
56736;SDS011;42618;51.226;4.910;2024-01-15T03:32:07;12.30;;;5.97;;
56736;SDS011;42618;51.226;4.910;2024-01-15T03:34:33;6.70;;;3.38;;
56736;SDS011;42618;51.226;4.910;2024-01-15T03:37:00;11.30;;;6.07;;
56736;SDS011;42618;51.226;4.910;2024-01-15T03:39:27;12.98;;;5.30;;
56736;SDS011;42618;51.226;4.910;2024-01-15T03:41:55;19.93;;;6.30;;
56736;SDS011;42618;51.226;4.910;2024-01-15T03:44:21;10.05;;;5.75;;
56736;SDS011;42618;51.226;4.910;2024-01-15T03:46:48;11.80;;;5.20;;
56736;SDS011;42618;51.226;4.910;2024-01-15T03:49:15;15.05;;;6.40;;
56736;SDS011;42618;51.226;4.910;2024-01-15T03:51:42;13.95;;;6.10;;
56736;SDS011;42618;51.226;4.910;2024-01-15T03:54:09;14.50;;;6.40;;
56736;SDS011;42618;51.226;4.910;2024-01-15T03:56:36;15.82;;;5.55;;
56736;SDS011;42618;51.226;4.910;2024-01-15T03:59:02;17.45;;;6.13;;
56736;SDS011;42618;51.226;4.910;2024-01-15T04:01:29;15.73;;;6.88;;
56736;SDS011;42618;51.226;4.910;2024-01-15T04:03:56;14.98;;;7.50;;
56736;SDS011;42618;51.226;4.910;2024-01-15T04:06:23;13.00;;;6.60;;
56736;SDS011;42618;51.226;4.910;2024-01-15T04:08:50;16.65;;;6.90;;
56736;SDS011;42618;51.226;4.910;2024-01-15T04:11:17;13.23;;;6.45;;
56736;SDS011;42618;51.226;4.910;2024-01-15T04:13:44;10.38;;;5.57;;
56736;SDS011;42618;51.226;4.910;2024-01-15T04:16:10;12.25;;;5.38;;
56736;SDS011;42618;51.226;4.910;2024-01-15T04:18:37;9.13;;;5.63;;
56736;SDS011;42618;51.226;4.910;2024-01-15T04:21:05;17.23;;;5.75;;
56736;SDS011;42618;51.226;4.910;2024-01-15T04:25:59;11.05;;;6.57;;
56736;SDS011;42618;51.226;4.910;2024-01-15T04:28:26;17.60;;;6.28;;
56736;SDS011;42618;51.226;4.910;2024-01-15T04:30:52;16.90;;;5.30;;
56736;SDS011;42618;51.226;4.910;2024-01-15T04:33:19;16.55;;;5.28;;
56736;SDS011;42618;51.226;4.910;2024-01-15T04:35:46;8.90;;;5.20;;
56736;SDS011;42618;51.226;4.910;2024-01-15T04:38:13;13.15;;;5.22;;
56736;SDS011;42618;51.226;4.910;2024-01-15T04:40:40;9.75;;;4.95;;
56736;SDS011;42618;51.226;4.910;2024-01-15T04:43:07;11.77;;;5.05;;
56736;SDS011;42618;51.226;4.910;2024-01-15T04:45:34;14.00;;;5.93;;
56736;SDS011;42618;51.226;4.910;2024-01-15T04:48:01;15.27;;;6.18;;
56736;SDS011;42618;51.226;4.910;2024-01-15T04:50:28;10.98;;;4.85;;
56736;SDS011;42618;51.226;4.910;2024-01-15T04:52:55;13.27;;;5.60;;
56736;SDS011;42618;51.226;4.910;2024-01-15T04:55:21;8.93;;;4.60;;
56736;SDS011;42618;51.226;4.910;2024-01-15T04:57:48;10.10;;;4.57;;
56736;SDS011;42618;51.226;4.910;2024-01-15T05:00:15;10.57;;;4.97;;
56736;SDS011;42618;51.226;4.910;2024-01-15T05:02:42;7.97;;;4.00;;
56736;SDS011;42618;51.226;4.910;2024-01-15T05:05:09;6.55;;;2.63;;
56736;SDS011;42618;51.226;4.910;2024-01-15T05:07:36;6.97;;;3.40;;
56736;SDS011;42618;51.226;4.910;2024-01-15T05:10:03;12.45;;;2.70;;
56736;SDS011;42618;51.226;4.910;2024-01-15T05:12:30;9.95;;;3.25;;
56736;SDS011;42618;51.226;4.910;2024-01-15T05:14:57;12.00;;;4.40;;
56736;SDS011;42618;51.226;4.910;2024-01-15T05:17:24;12.43;;;3.97;;
56736;SDS011;42618;51.226;4.910;2024-01-15T05:19:51;9.05;;;4.03;;
56736;SDS011;42618;51.226;4.910;2024-01-15T05:22:18;8.73;;;2.42;;
56736;SDS011;42618;51.226;4.910;2024-01-15T05:24:44;4.47;;;2.20;;
56736;SDS011;42618;51.226;4.910;2024-01-15T05:27:11;11.85;;;4.38;;
56736;SDS011;42618;51.226;4.910;2024-01-15T05:29:38;8.83;;;3.33;;
56736;SDS011;42618;51.226;4.910;2024-01-15T05:32:05;8.45;;;3.47;;
56736;SDS011;42618;51.226;4.910;2024-01-15T05:34:32;13.00;;;5.33;;
56736;SDS011;42618;51.226;4.910;2024-01-15T05:36:59;9.23;;;5.03;;
56736;SDS011;42618;51.226;4.910;2024-01-15T05:39:26;9.13;;;2.37;;
56736;SDS011;42618;51.226;4.910;2024-01-15T05:41:53;10.55;;;4.60;;
56736;SDS011;42618;51.226;4.910;2024-01-15T05:44:20;12.45;;;4.80;;
56736;SDS011;42618;51.226;4.910;2024-01-15T05:46:46;16.00;;;6.05;;
56736;SDS011;42618;51.226;4.910;2024-01-15T05:49:13;10.30;;;4.25;;
56736;SDS011;42618;51.226;4.910;2024-01-15T05:51:40;16.13;;;5.63;;
56736;SDS011;42618;51.226;4.910;2024-01-15T05:54:07;13.70;;;4.13;;
56736;SDS011;42618;51.226;4.910;2024-01-15T05:56:34;4.90;;;3.13;;
56736;SDS011;42618;51.226;4.910;2024-01-15T05:59:01;17.27;;;5.20;;
56736;SDS011;42618;51.226;4.910;2024-01-15T06:01:28;11.70;;;5.45;;
56736;SDS011;42618;51.226;4.910;2024-01-15T06:03:55;10.55;;;5.30;;
56736;SDS011;42618;51.226;4.910;2024-01-15T06:06:23;10.43;;;5.88;;
56736;SDS011;42618;51.226;4.910;2024-01-15T06:08:50;15.25;;;6.18;;
56736;SDS011;42618;51.226;4.910;2024-01-15T06:11:16;10.50;;;5.60;;
56736;SDS011;42618;51.226;4.910;2024-01-15T06:13:43;10.38;;;4.88;;
56736;SDS011;42618;51.226;4.910;2024-01-15T06:16:13;11.38;;;5.28;;
56736;SDS011;42618;51.226;4.910;2024-01-15T06:18:42;12.57;;;5.25;;
56736;SDS011;42618;51.226;4.910;2024-01-15T06:21:09;11.90;;;5.80;;
56736;SDS011;42618;51.226;4.910;2024-01-15T06:23:39;14.50;;;6.05;;
56736;SDS011;42618;51.226;4.910;2024-01-15T06:26:05;11.63;;;5.55;;
56736;SDS011;42618;51.226;4.910;2024-01-15T06:28:32;14.23;;;6.30;;
56736;SDS011;42618;51.226;4.910;2024-01-15T06:30:59;65.32;;;29.85;;
56736;SDS011;42618;51.226;4.910;2024-01-15T06:33:26;14.82;;;7.75;;
56736;SDS011;42618;51.226;4.910;2024-01-15T06:35:53;15.87;;;8.23;;
56736;SDS011;42618;51.226;4.910;2024-01-15T06:38:19;17.05;;;7.32;;
56736;SDS011;42618;51.226;4.910;2024-01-15T06:40:47;20.92;;;7.32;;
56736;SDS011;42618;51.226;4.910;2024-01-15T06:43:19;13.65;;;7.35;;
56736;SDS011;42618;51.226;4.910;2024-01-15T06:45:45;12.77;;;7.60;;
56736;SDS011;42618;51.226;4.910;2024-01-15T06:48:12;12.07;;;6.47;;
56736;SDS011;42618;51.226;4.910;2024-01-15T06:50:43;13.90;;;6.35;;
56736;SDS011;42618;51.226;4.910;2024-01-15T06:53:10;11.87;;;7.17;;
56736;SDS011;42618;51.226;4.910;2024-01-15T06:55:37;13.15;;;5.13;;
56736;SDS011;42618;51.226;4.910;2024-01-15T07:00:31;8.52;;;4.80;;
56736;SDS011;42618;51.226;4.910;2024-01-15T07:02:58;7.40;;;4.60;;
56736;SDS011;42618;51.226;4.910;2024-01-15T07:05:25;8.90;;;4.93;;
56736;SDS011;42618;51.226;4.910;2024-01-15T07:07:53;7.75;;;4.22;;
56736;SDS011;42618;51.226;4.910;2024-01-15T07:10:19;8.05;;;2.70;;
56736;SDS011;42618;51.226;4.910;2024-01-15T07:12:46;2.85;;;1.67;;
56736;SDS011;42618;51.226;4.910;2024-01-15T07:15:13;6.20;;;2.17;;
56736;SDS011;42618;51.226;4.910;2024-01-15T07:20:09;3.65;;;1.35;;
56736;SDS011;42618;51.226;4.910;2024-01-15T07:22:36;3.78;;;1.58;;
56736;SDS011;42618;51.226;4.910;2024-01-15T07:25:04;2.35;;;1.25;;
56736;SDS011;42618;51.226;4.910;2024-01-15T07:29:58;3.08;;;1.52;;
56736;SDS011;42618;51.226;4.910;2024-01-15T07:32:28;10.50;;;1.73;;
56736;SDS011;42618;51.226;4.910;2024-01-15T07:34:55;4.23;;;2.23;;
56736;SDS011;42618;51.226;4.910;2024-01-15T07:37:22;9.73;;;2.45;;
56736;SDS011;42618;51.226;4.910;2024-01-15T07:39:49;3.13;;;1.48;;
56736;SDS011;42618;51.226;4.910;2024-01-15T07:42:17;4.03;;;1.83;;
56736;SDS011;42618;51.226;4.910;2024-01-15T07:44:44;3.87;;;0.90;;
56736;SDS011;42618;51.226;4.910;2024-01-15T07:47:11;4.18;;;1.10;;
56736;SDS011;42618;51.226;4.910;2024-01-15T07:49:38;5.33;;;1.23;;
56736;SDS011;42618;51.226;4.910;2024-01-15T07:52:05;1.92;;;0.80;;
56736;SDS011;42618;51.226;4.910;2024-01-15T07:54:32;3.65;;;0.68;;
56736;SDS011;42618;51.226;4.910;2024-01-15T07:57:00;3.80;;;0.80;;
56736;SDS011;42618;51.226;4.910;2024-01-15T07:59:29;2.40;;;0.70;;
56736;SDS011;42618;51.226;4.910;2024-01-15T08:01:58;2.00;;;0.90;;
56736;SDS011;42618;51.226;4.910;2024-01-15T08:04:26;6.95;;;1.75;;
56736;SDS011;42618;51.226;4.910;2024-01-15T08:06:53;24.52;;;11.88;;
56736;SDS011;42618;51.226;4.910;2024-01-15T08:09:20;8.03;;;2.73;;
56736;SDS011;42618;51.226;4.910;2024-01-15T08:11:47;5.70;;;1.97;;
56736;SDS011;42618;51.226;4.910;2024-01-15T08:14:15;5.10;;;1.58;;
56736;SDS011;42618;51.226;4.910;2024-01-15T08:16:42;3.03;;;1.60;;
56736;SDS011;42618;51.226;4.910;2024-01-15T08:19:10;4.28;;;1.38;;
56736;SDS011;42618;51.226;4.910;2024-01-15T08:21:37;2.80;;;1.35;;
56736;SDS011;42618;51.226;4.910;2024-01-15T08:24:04;2.67;;;1.27;;
56736;SDS011;42618;51.226;4.910;2024-01-15T08:26:31;2.97;;;1.50;;
56736;SDS011;42618;51.226;4.910;2024-01-15T08:28:58;3.08;;;1.50;;
56736;SDS011;42618;51.226;4.910;2024-01-15T08:31:25;4.15;;;3.30;;
56736;SDS011;42618;51.226;4.910;2024-01-15T08:33:52;10.38;;;3.80;;
56736;SDS011;42618;51.226;4.910;2024-01-15T08:36:20;5.00;;;3.17;;
56736;SDS011;42618;51.226;4.910;2024-01-15T08:38:47;2.70;;;1.77;;
56736;SDS011;42618;51.226;4.910;2024-01-15T08:41:14;16.63;;;7.70;;
56736;SDS011;42618;51.226;4.910;2024-01-15T08:43:41;36.75;;;17.17;;
56736;SDS011;42618;51.226;4.910;2024-01-15T08:46:08;13.10;;;6.90;;
56736;SDS011;42618;51.226;4.910;2024-01-15T08:48:35;7.20;;;4.50;;
56736;SDS011;42618;51.226;4.910;2024-01-15T08:51:02;8.02;;;4.78;;
56736;SDS011;42618;51.226;4.910;2024-01-15T08:53:29;9.73;;;4.63;;
56736;SDS011;42618;51.226;4.910;2024-01-15T08:55:56;9.20;;;4.65;;
56736;SDS011;42618;51.226;4.910;2024-01-15T08:58:23;11.57;;;5.30;;
56736;SDS011;42618;51.226;4.910;2024-01-15T09:00:51;16.95;;;5.88;;
56736;SDS011;42618;51.226;4.910;2024-01-15T09:03:18;11.82;;;5.82;;
56736;SDS011;42618;51.226;4.910;2024-01-15T09:05:45;11.90;;;5.60;;
56736;SDS011;42618;51.226;4.910;2024-01-15T09:08:12;9.70;;;4.47;;
56736;SDS011;42618;51.226;4.910;2024-01-15T09:10:38;13.88;;;5.13;;
56736;SDS011;42618;51.226;4.910;2024-01-15T09:13:05;10.45;;;4.10;;
56736;SDS011;42618;51.226;4.910;2024-01-15T09:15:32;6.78;;;3.80;;
56736;SDS011;42618;51.226;4.910;2024-01-15T09:17:59;6.70;;;2.73;;
56736;SDS011;42618;51.226;4.910;2024-01-15T09:24:57;38.65;;;9.25;;
56736;SDS011;42618;51.226;4.910;2024-01-15T09:30:30;17.48;;;5.00;;
56736;SDS011;42618;51.226;4.910;2024-01-15T09:32:57;15.00;;;4.17;;
56736;SDS011;42618;51.226;4.910;2024-01-15T09:35:25;11.88;;;5.53;;
56736;SDS011;42618;51.226;4.910;2024-01-15T09:37:52;9.77;;;3.92;;
56736;SDS011;42618;51.226;4.910;2024-01-15T09:40:19;15.70;;;5.32;;
56736;SDS011;42618;51.226;4.910;2024-01-15T09:42:47;12.18;;;3.33;;
56736;SDS011;42618;51.226;4.910;2024-01-15T09:45:14;7.20;;;3.03;;
56736;SDS011;42618;51.226;4.910;2024-01-15T09:47:41;9.25;;;3.58;;
56736;SDS011;42618;51.226;4.910;2024-01-15T09:50:12;4.40;;;2.35;;
56736;SDS011;42618;51.226;4.910;2024-01-15T09:52:40;11.57;;;4.45;;
56736;SDS011;42618;51.226;4.910;2024-01-15T09:55:07;10.00;;;2.28;;
56736;SDS011;42618;51.226;4.910;2024-01-15T09:57:36;10.45;;;3.40;;
56736;SDS011;42618;51.226;4.910;2024-01-15T10:00:03;13.52;;;5.03;;
56736;SDS011;42618;51.226;4.910;2024-01-15T10:02:33;8.63;;;1.85;;
56736;SDS011;42618;51.226;4.910;2024-01-15T10:05:02;8.90;;;1.50;;
56736;SDS011;42618;51.226;4.910;2024-01-15T10:09:57;4.68;;;0.88;;
56736;SDS011;42618;51.226;4.910;2024-01-15T10:12:24;6.45;;;1.25;;
56736;SDS011;42618;51.226;4.910;2024-01-15T10:14:54;10.32;;;1.52;;
56736;SDS011;42618;51.226;4.910;2024-01-15T10:17:25;3.40;;;0.60;;
56736;SDS011;42618;51.226;4.910;2024-01-15T10:19:55;10.13;;;1.35;;
56736;SDS011;42618;51.226;4.910;2024-01-15T10:22:22;3.38;;;1.10;;
56736;SDS011;42618;51.226;4.910;2024-01-15T10:24:49;3.28;;;0.68;;
56736;SDS011;42618;51.226;4.910;2024-01-15T10:27:16;5.90;;;1.00;;
56736;SDS011;42618;51.226;4.910;2024-01-15T10:29:43;8.23;;;3.10;;
56736;SDS011;42618;51.226;4.910;2024-01-15T10:32:11;10.60;;;6.85;;
56736;SDS011;42618;51.226;4.910;2024-01-15T10:34:38;19.83;;;12.35;;
56736;SDS011;42618;51.226;4.910;2024-01-15T10:37:07;8.80;;;2.58;;
56736;SDS011;42618;51.226;4.910;2024-01-15T10:39:35;29.17;;;10.93;;
56736;SDS011;42618;51.226;4.910;2024-01-15T10:42:04;57.55;;;23.98;;
56736;SDS011;42618;51.226;4.910;2024-01-15T10:44:33;3.53;;;0.95;;
56736;SDS011;42618;51.226;4.910;2024-01-15T10:47:01;3.25;;;0.77;;
56736;SDS011;42618;51.226;4.910;2024-01-15T10:49:28;3.13;;;0.93;;
56736;SDS011;42618;51.226;4.910;2024-01-15T10:52:00;2.00;;;0.90;;
56736;SDS011;42618;51.226;4.910;2024-01-15T10:54:29;3.20;;;0.68;;
56736;SDS011;42618;51.226;4.910;2024-01-15T10:56:56;2.90;;;0.40;;
56736;SDS011;42618;51.226;4.910;2024-01-15T10:59:23;5.00;;;1.30;;
56736;SDS011;42618;51.226;4.910;2024-01-15T11:01:51;5.00;;;3.28;;
56736;SDS011;42618;51.226;4.910;2024-01-15T11:04:21;0.73;;;0.60;;
56736;SDS011;42618;51.226;4.910;2024-01-15T11:06:52;6.75;;;2.00;;
56736;SDS011;42618;51.226;4.910;2024-01-15T11:09:22;5.20;;;1.40;;
56736;SDS011;42618;51.226;4.910;2024-01-15T11:11:52;5.47;;;1.02;;
56736;SDS011;42618;51.226;4.910;2024-01-15T11:14:40;2.95;;;0.65;;
56736;SDS011;42618;51.226;4.910;2024-01-15T11:17:10;10.18;;;1.25;;
56736;SDS011;42618;51.226;4.910;2024-01-15T11:22:09;5.68;;;0.90;;
56736;SDS011;42618;51.226;4.910;2024-01-15T11:24:55;7.10;;;1.00;;
56736;SDS011;42618;51.226;4.910;2024-01-15T11:27:41;2.25;;;1.23;;
56736;SDS011;42618;51.226;4.910;2024-01-15T11:30:11;1.60;;;0.40;;
56736;SDS011;42618;51.226;4.910;2024-01-15T11:32:40;7.03;;;0.80;;
56736;SDS011;42618;51.226;4.910;2024-01-15T11:35:10;1.08;;;0.70;;
56736;SDS011;42618;51.226;4.910;2024-01-15T11:40:22;8.27;;;2.38;;
56736;SDS011;42618;51.226;4.910;2024-01-15T11:43:10;7.80;;;2.55;;
56736;SDS011;42618;51.226;4.910;2024-01-15T11:45:39;2.05;;;0.88;;
56736;SDS011;42618;51.226;4.910;2024-01-15T11:50:40;10.77;;;5.10;;
56736;SDS011;42618;51.226;4.910;2024-01-15T11:53:13;3.30;;;1.58;;
56736;SDS011;42618;51.226;4.910;2024-01-15T11:55:45;4.10;;;1.55;;
56736;SDS011;42618;51.226;4.910;2024-01-15T11:58:12;9.90;;;4.87;;
56736;SDS011;42618;51.226;4.910;2024-01-15T12:00:43;3.00;;;0.98;;
56736;SDS011;42618;51.226;4.910;2024-01-15T12:03:11;6.10;;;2.05;;
56736;SDS011;42618;51.226;4.910;2024-01-15T12:05:38;0.47;;;0.40;;
56736;SDS011;42618;51.226;4.910;2024-01-15T12:08:06;3.95;;;1.05;;
56736;SDS011;42618;51.226;4.910;2024-01-15T12:10:39;5.07;;;1.23;;
56736;SDS011;42618;51.226;4.910;2024-01-15T12:13:12;1.63;;;0.70;;
56736;SDS011;42618;51.226;4.910;2024-01-15T12:15:40;4.43;;;0.50;;
56736;SDS011;42618;51.226;4.910;2024-01-15T12:18:12;0.73;;;0.25;;
56736;SDS011;42618;51.226;4.910;2024-01-15T12:20:42;3.75;;;0.50;;
56736;SDS011;42618;51.226;4.910;2024-01-15T12:23:10;1.52;;;0.30;;
56736;SDS011;42618;51.226;4.910;2024-01-15T12:25:37;1.63;;;0.47;;
56736;SDS011;42618;51.226;4.910;2024-01-15T12:28:05;4.95;;;0.70;;
56736;SDS011;42618;51.226;4.910;2024-01-15T12:30:33;3.38;;;0.50;;
56736;SDS011;42618;51.226;4.910;2024-01-15T12:33:01;4.43;;;0.50;;
56736;SDS011;42618;51.226;4.910;2024-01-15T12:35:30;1.83;;;0.38;;
56736;SDS011;42618;51.226;4.910;2024-01-15T12:37:59;7.05;;;0.80;;
56736;SDS011;42618;51.226;4.910;2024-01-15T12:40:30;0.32;;;0.20;;
56736;SDS011;42618;51.226;4.910;2024-01-15T12:42:58;1.30;;;0.40;;
56736;SDS011;42618;51.226;4.910;2024-01-15T12:45:24;1.13;;;0.35;;
56736;SDS011;42618;51.226;4.910;2024-01-15T12:47:52;1.88;;;0.60;;
56736;SDS011;42618;51.226;4.910;2024-01-15T12:50:19;1.35;;;0.32;;
56736;SDS011;42618;51.226;4.910;2024-01-15T12:52:47;22.50;;;7.88;;
56736;SDS011;42618;51.226;4.910;2024-01-15T12:55:14;11.07;;;4.00;;
56736;SDS011;42618;51.226;4.910;2024-01-15T13:00:09;6.00;;;2.75;;
56736;SDS011;42618;51.226;4.910;2024-01-15T13:02:41;4.82;;;1.55;;
56736;SDS011;42618;51.226;4.910;2024-01-15T13:05:11;7.97;;;4.05;;
56736;SDS011;42618;51.226;4.910;2024-01-15T13:07:40;5.57;;;2.00;;
56736;SDS011;42618;51.226;4.910;2024-01-15T13:10:07;3.00;;;1.30;;
56736;SDS011;42618;51.226;4.910;2024-01-15T13:12:38;3.65;;;0.82;;
56736;SDS011;42618;51.226;4.910;2024-01-15T13:15:06;2.40;;;1.30;;
56736;SDS011;42618;51.226;4.910;2024-01-15T13:17:40;2.33;;;0.57;;
56736;SDS011;42618;51.226;4.910;2024-01-15T13:20:07;6.45;;;0.65;;
56736;SDS011;42618;51.226;4.910;2024-01-15T13:22:36;2.17;;;0.70;;
56736;SDS011;42618;51.226;4.910;2024-01-15T13:25:06;1.30;;;0.30;;
56736;SDS011;42618;51.226;4.910;2024-01-15T13:27:34;1.65;;;0.70;;
56736;SDS011;42618;51.226;4.910;2024-01-15T13:30:05;0.68;;;0.25;;
56736;SDS011;42618;51.226;4.910;2024-01-15T13:32:35;2.55;;;0.85;;
56736;SDS011;42618;51.226;4.910;2024-01-15T13:35:02;2.30;;;0.30;;
56736;SDS011;42618;51.226;4.910;2024-01-15T13:37:31;1.85;;;0.30;;
56736;SDS011;42618;51.226;4.910;2024-01-15T13:39:58;2.88;;;0.70;;
56736;SDS011;42618;51.226;4.910;2024-01-15T13:42:25;0.40;;;0.30;;
56736;SDS011;42618;51.226;4.910;2024-01-15T13:44:54;1.77;;;0.57;;
56736;SDS011;42618;51.226;4.910;2024-01-15T13:47:20;3.03;;;1.20;;
56736;SDS011;42618;51.226;4.910;2024-01-15T13:49:47;2.03;;;0.80;;
56736;SDS011;42618;51.226;4.910;2024-01-15T13:52:14;4.13;;;2.47;;
56736;SDS011;42618;51.226;4.910;2024-01-15T13:54:41;11.10;;;3.42;;
56736;SDS011;42618;51.226;4.910;2024-01-15T13:57:16;1.95;;;0.55;;
56736;SDS011;42618;51.226;4.910;2024-01-15T14:02:10;3.60;;;1.40;;
56736;SDS011;42618;51.226;4.910;2024-01-15T14:04:38;0.80;;;0.43;;
56736;SDS011;42618;51.226;4.910;2024-01-15T14:07:05;2.30;;;0.77;;
56736;SDS011;42618;51.226;4.910;2024-01-15T14:09:33;5.43;;;0.50;;
56736;SDS011;42618;51.226;4.910;2024-01-15T14:12:00;3.67;;;0.77;;
56736;SDS011;42618;51.226;4.910;2024-01-15T14:14:27;1.35;;;0.60;;
56736;SDS011;42618;51.226;4.910;2024-01-15T14:16:54;1.03;;;0.50;;
56736;SDS011;42618;51.226;4.910;2024-01-15T14:19:20;2.42;;;1.33;;
56736;SDS011;42618;51.226;4.910;2024-01-15T14:21:48;4.45;;;0.90;;
56736;SDS011;42618;51.226;4.910;2024-01-15T14:24:15;2.42;;;0.40;;
56736;SDS011;42618;51.226;4.910;2024-01-15T14:26:44;2.03;;;0.30;;
56736;SDS011;42618;51.226;4.910;2024-01-15T14:29:11;6.70;;;0.70;;
56736;SDS011;42618;51.226;4.910;2024-01-15T14:31:38;4.75;;;0.50;;
56736;SDS011;42618;51.226;4.910;2024-01-15T14:34:05;1.85;;;0.60;;
56736;SDS011;42618;51.226;4.910;2024-01-15T14:36:34;3.28;;;0.47;;
56736;SDS011;42618;51.226;4.910;2024-01-15T14:39:01;2.38;;;0.43;;
56736;SDS011;42618;51.226;4.910;2024-01-15T14:41:28;3.38;;;0.85;;
56736;SDS011;42618;51.226;4.910;2024-01-15T14:43:56;3.28;;;0.70;;
56736;SDS011;42618;51.226;4.910;2024-01-15T14:46:23;1.60;;;0.60;;
56736;SDS011;42618;51.226;4.910;2024-01-15T14:48:50;3.70;;;0.90;;
56736;SDS011;42618;51.226;4.910;2024-01-15T14:51:17;6.97;;;1.43;;
56736;SDS011;42618;51.226;4.910;2024-01-15T14:53:44;2.42;;;1.15;;
56736;SDS011;42618;51.226;4.910;2024-01-15T14:56:11;6.13;;;0.90;;
56736;SDS011;42618;51.226;4.910;2024-01-15T14:58:41;7.47;;;1.90;;
56736;SDS011;42618;51.226;4.910;2024-01-15T15:01:09;5.60;;;1.67;;
56736;SDS011;42618;51.226;4.910;2024-01-15T15:03:36;16.70;;;2.83;;
56736;SDS011;42618;51.226;4.910;2024-01-15T15:06:03;4.30;;;0.57;;
56736;SDS011;42618;51.226;4.910;2024-01-15T15:08:30;2.75;;;0.52;;
56736;SDS011;42618;51.226;4.910;2024-01-15T15:10:57;6.05;;;0.68;;
56736;SDS011;42618;51.226;4.910;2024-01-15T15:13:24;8.13;;;2.25;;
56736;SDS011;42618;51.226;4.910;2024-01-15T15:16:09;4.65;;;1.23;;
56736;SDS011;42618;51.226;4.910;2024-01-15T15:18:37;17.08;;;8.65;;
56736;SDS011;42618;51.226;4.910;2024-01-15T15:21:04;6.00;;;2.10;;